createdAt,value
2022-12-11T00:00:49.411Z,69.20
2022-12-11T00:03:17.485Z,69.20
2022-12-11T00:05:46.139Z,69.20
2022-12-11T00:08:14.016Z,69.30
2022-12-11T00:10:47.010Z,69.30
2022-12-11T00:13:13.630Z,69.30
2022-12-11T00:15:40.254Z,69.20
2022-12-11T00:18:08.346Z,69.30
2022-12-11T00:20:34.939Z,69.20
2022-12-11T00:23:02.286Z,69.20
2022-12-11T00:25:28.876Z,69.20
2022-12-11T00:27:55.486Z,69.20
2022-12-11T00:30:22.126Z,69.20
2022-12-11T00:32:51.103Z,69.30
2022-12-11T00:35:17.914Z,69.20
2022-12-11T00:37:44.550Z,69.20
2022-12-11T00:40:11.489Z,69.20
2022-12-11T00:42:38.165Z,69.20
2022-12-11T00:45:04.995Z,69.20
2022-12-11T00:47:31.646Z,69.30
2022-12-11T00:49:58.337Z,69.20
2022-12-11T00:52:24.992Z,69.20
2022-12-11T00:54:51.616Z,69.20
2022-12-11T00:57:18.235Z,69.20
2022-12-11T00:59:44.905Z,69.20
2022-12-11T01:02:11.586Z,69.20
2022-12-11T01:04:38.348Z,69.10
2022-12-11T01:07:05.258Z,69.20
2022-12-11T01:09:50.635Z,69.10
2022-12-11T01:12:17.410Z,69.10
2022-12-11T01:14:44.198Z,69.10
2022-12-11T01:17:11.200Z,69.20
2022-12-11T01:19:37.832Z,69.20
2022-12-11T01:22:04.740Z,69.20
2022-12-11T01:24:32.170Z,69.20
2022-12-11T01:26:58.770Z,69.20
2022-12-11T01:29:25.475Z,69.20
2022-12-11T01:31:53.354Z,69.10
2022-12-11T01:34:20.067Z,69.20
2022-12-11T01:36:46.749Z,69.20
2022-12-11T01:39:13.558Z,69.20
2022-12-11T01:41:40.403Z,69.20
2022-12-11T01:44:29.089Z,69.20
2022-12-11T01:46:55.917Z,69.20
2022-12-11T01:49:26.696Z,69.10
2022-12-11T01:52:19.961Z,69.20
2022-12-11T01:54:48.121Z,69.20
2022-12-11T01:57:16.013Z,69.10
2022-12-11T01:59:45.755Z,69.20
2022-12-11T02:02:20.421Z,69.20
2022-12-11T02:04:48.302Z,69.20
2022-12-11T02:07:15.716Z,69.10
2022-12-11T02:09:45.280Z,69.10
2022-12-11T02:12:14.650Z,69.30
2022-12-11T02:15:02.971Z,69.30
2022-12-11T02:17:34.068Z,69.40
2022-12-11T02:20:32.916Z,69.30
2022-12-11T02:23:17.595Z,69.30
2022-12-11T02:26:12.286Z,69.30
2022-12-11T02:28:45.555Z,69.30
2022-12-11T02:31:22.014Z,69.20
2022-12-11T02:34:12.078Z,69.30
2022-12-11T02:36:43.594Z,69.30
2022-12-11T02:39:13.006Z,69.30
2022-12-11T02:41:45.392Z,69.30
2022-12-11T02:44:15.009Z,69.30
2022-12-11T02:46:43.178Z,69.30
2022-12-11T02:49:12.036Z,69.30
2022-12-11T02:51:43.778Z,69.30
2022-12-11T02:54:21.759Z,69.20
2022-12-11T02:57:05.026Z,69.20
2022-12-11T02:59:39.220Z,69.20
2022-12-11T03:02:06.780Z,69.20
2022-12-11T03:04:36.288Z,69.20
2022-12-11T03:07:12.223Z,69.20
2022-12-11T03:09:41.383Z,69.20
2022-12-11T03:12:10.934Z,69.20
2022-12-11T03:14:40.507Z,69.20
2022-12-11T03:17:14.323Z,69.20
2022-12-11T03:19:49.658Z,69.20
2022-12-11T03:22:22.586Z,69.20
2022-12-11T03:24:55.202Z,69.20
2022-12-11T03:27:34.278Z,69.20
2022-12-11T03:30:05.923Z,69.20
2022-12-11T03:32:50.303Z,69.20
2022-12-11T03:35:27.938Z,69.20
2022-12-11T03:37:56.750Z,69.20
2022-12-11T03:40:25.701Z,69.20
2022-12-11T03:42:55.916Z,69.20
2022-12-11T03:45:23.810Z,69.20
2022-12-11T03:47:52.650Z,69.20
2022-12-11T03:50:21.752Z,69.20
2022-12-11T03:52:49.749Z,69.20
2022-12-11T03:55:18.571Z,69.20
2022-12-11T03:57:45.663Z,69.20
2022-12-11T04:00:16.382Z,69.20
2022-12-11T04:02:43.425Z,69.20
2022-12-11T04:05:11.566Z,69.20
2022-12-11T04:07:38.431Z,69.20
2022-12-11T04:10:05.817Z,69.20
2022-12-11T04:12:32.620Z,69.20
2022-12-11T04:15:02.237Z,69.20
2022-12-11T04:17:49.530Z,69.10
2022-12-11T04:20:35.226Z,69.10
2022-12-11T04:23:23.563Z,69.10
2022-12-11T04:25:50.627Z,69.10
2022-12-11T04:28:17.447Z,69.10
2022-12-11T04:30:49.712Z,69.20
2022-12-11T04:33:16.781Z,69.20
2022-12-11T04:35:43.410Z,69.20
2022-12-11T04:38:10.154Z,69.20
2022-12-11T04:40:36.810Z,69.20
2022-12-11T04:43:03.529Z,69.20
2022-12-11T04:45:30.170Z,69.20
2022-12-11T04:47:56.752Z,69.20
2022-12-11T04:50:23.388Z,69.10
2022-12-11T04:52:50.146Z,69.10
2022-12-11T04:55:16.972Z,69.10
2022-12-11T04:57:43.632Z,69.10
2022-12-11T05:00:11.878Z,69.10
2022-12-11T05:02:40.526Z,69.10
2022-12-11T05:05:12.145Z,69.10
2022-12-11T05:07:39.089Z,69.10
2022-12-11T05:10:06.452Z,69.10
2022-12-11T05:12:33.658Z,69.10
2022-12-11T05:15:00.295Z,69.10
2022-12-11T05:17:26.955Z,69.10
2022-12-11T05:19:53.598Z,69.10
2022-12-11T05:22:20.231Z,69.10
2022-12-11T05:24:48.202Z,69.10
2022-12-11T05:27:14.896Z,69.10
2022-12-11T05:32:11.751Z,69.10
2022-12-11T05:34:38.580Z,69.10
2022-12-11T05:37:05.411Z,69.10
2022-12-11T05:39:32.155Z,69.10
2022-12-11T05:41:59.027Z,69.10
2022-12-11T05:44:25.840Z,69.10
2022-12-11T05:46:52.647Z,69.10
2022-12-11T05:49:20.132Z,69.10
2022-12-11T05:51:47.354Z,69.10
2022-12-11T05:54:14.313Z,69.10
2022-12-11T05:56:41.088Z,69.10
2022-12-11T05:59:07.789Z,69.10
2022-12-11T06:01:40.701Z,69.10
2022-12-11T06:04:09.135Z,69.10
2022-12-11T06:06:36.522Z,69.10
2022-12-11T06:09:05.023Z,69.10
2022-12-11T06:11:33.359Z,69.10
2022-12-11T06:14:03.849Z,69.10
2022-12-11T06:16:30.834Z,69.00
2022-12-11T06:18:58.921Z,69.00
2022-12-11T06:21:30.991Z,69.00
2022-12-11T06:24:00.458Z,69.00
2022-12-11T06:26:28.286Z,69.00
2022-12-11T06:28:55.148Z,69.10
2022-12-11T06:31:21.903Z,69.00
2022-12-11T06:33:49.074Z,69.00
2022-12-11T06:36:19.029Z,69.00
2022-12-11T06:38:46.097Z,69.00
2022-12-11T06:41:12.965Z,69.00
2022-12-11T06:43:41.201Z,69.00
2022-12-11T06:46:13.766Z,69.00
2022-12-11T06:48:42.164Z,69.00
2022-12-11T06:51:14.853Z,69.00
2022-12-11T06:53:42.502Z,69.00
2022-12-11T06:56:14.467Z,69.00
2022-12-11T06:58:42.695Z,69.00
2022-12-11T07:01:21.695Z,69.00
2022-12-11T07:03:48.986Z,69.10
2022-12-11T07:06:16.358Z,69.00
2022-12-11T07:08:43.743Z,69.10
2022-12-11T07:11:13.346Z,69.10
2022-12-11T07:13:42.202Z,69.10
2022-12-11T07:16:11.092Z,69.10
2022-12-11T07:18:44.255Z,69.10
2022-12-11T07:21:12.891Z,69.10
2022-12-11T07:23:40.103Z,69.10
2022-12-11T07:26:11.409Z,69.10
2022-12-11T07:28:41.017Z,69.10
2022-12-11T07:31:13.905Z,69.10
2022-12-11T07:33:42.839Z,69.10
2022-12-11T07:36:11.891Z,69.10
2022-12-11T07:38:39.962Z,69.10
2022-12-11T07:41:10.474Z,69.10
2022-12-11T07:43:37.597Z,69.10
2022-12-11T07:46:06.949Z,69.10
2022-12-11T07:48:36.736Z,69.10
2022-12-11T07:51:14.987Z,69.10
2022-12-11T07:53:43.495Z,69.10
2022-12-11T07:56:10.183Z,69.10
2022-12-11T07:58:39.001Z,69.10
2022-12-11T08:01:19.462Z,69.10
2022-12-11T08:03:47.229Z,69.10
2022-12-11T08:06:14.405Z,69.10
2022-12-11T08:08:53.484Z,69.10
2022-12-11T08:11:20.204Z,69.20
2022-12-11T08:13:46.907Z,69.10
2022-12-11T08:16:15.029Z,69.10
2022-12-11T08:18:42.713Z,69.10
2022-12-11T08:21:15.023Z,69.10
2022-12-11T08:23:42.060Z,69.20
2022-12-11T08:26:11.684Z,69.10
2022-12-11T08:28:38.506Z,69.10
2022-12-11T08:31:07.224Z,69.10
2022-12-11T08:33:35.238Z,69.10
2022-12-11T08:36:07.256Z,69.20
2022-12-11T08:38:36.201Z,69.20
2022-12-11T08:41:16.886Z,69.10
2022-12-11T08:43:44.278Z,69.20
2022-12-11T08:46:12.911Z,69.10
2022-12-11T08:48:41.529Z,69.10
2022-12-11T08:51:13.724Z,69.20
2022-12-11T08:53:40.444Z,69.20
2022-12-11T08:56:16.525Z,69.20
2022-12-11T08:58:44.115Z,69.20
2022-12-11T09:01:21.355Z,69.10
2022-12-11T09:03:49.503Z,69.20
2022-12-11T09:06:19.090Z,69.10
2022-12-11T09:08:52.273Z,69.20
2022-12-11T09:11:25.643Z,69.20
2022-12-11T09:13:52.949Z,69.10
2022-12-11T09:16:21.774Z,69.10
2022-12-11T09:18:50.702Z,69.10
2022-12-11T09:21:20.059Z,69.20
2022-12-11T09:23:47.099Z,69.20
2022-12-11T09:26:16.633Z,69.20
2022-12-11T09:28:46.597Z,69.20
2022-12-11T09:31:17.071Z,69.20
2022-12-11T09:33:44.602Z,69.20
2022-12-11T09:36:12.449Z,69.20
2022-12-11T09:38:39.517Z,69.20
2022-12-11T09:41:21.639Z,69.20
2022-12-11T09:43:54.302Z,69.20
2022-12-11T09:46:24.558Z,69.20
2022-12-11T09:48:53.707Z,69.20
2022-12-11T09:51:43.783Z,69.20
2022-12-11T09:54:13.647Z,69.30
2022-12-11T09:57:04.300Z,69.20
2022-12-11T10:00:05.665Z,69.20
2022-12-11T10:03:10.527Z,69.20
2022-12-11T10:06:04.243Z,69.20
2022-12-11T10:08:59.563Z,69.20
2022-12-11T10:11:35.927Z,69.20
2022-12-11T10:14:23.336Z,69.20
2022-12-11T10:17:19.519Z,69.30
2022-12-11T10:19:46.863Z,69.30
2022-12-11T10:22:24.623Z,69.30
2022-12-11T10:25:10.772Z,69.30
2022-12-11T10:27:40.467Z,69.40
2022-12-11T10:30:14.096Z,69.30
2022-12-11T10:32:49.034Z,69.30
2022-12-11T10:35:46.242Z,69.30
2022-12-11T10:38:21.386Z,69.30
2022-12-11T10:41:11.031Z,69.20
2022-12-11T10:43:46.809Z,69.30
2022-12-11T10:46:19.266Z,69.30
2022-12-11T10:49:00.586Z,69.30
2022-12-11T10:51:36.252Z,69.30
2022-12-11T10:54:15.645Z,69.30
2022-12-11T10:56:46.925Z,69.20
2022-12-11T10:59:30.712Z,69.20
2022-12-11T11:01:58.144Z,69.30
2022-12-11T11:04:32.307Z,69.20
2022-12-11T11:07:14.765Z,69.20
2022-12-11T11:09:41.929Z,69.20
2022-12-11T11:12:19.150Z,69.20
2022-12-11T11:14:45.886Z,69.30
2022-12-11T11:17:17.501Z,69.20
2022-12-11T11:19:48.487Z,69.20
2022-12-11T11:22:18.141Z,69.20
2022-12-11T11:24:54.172Z,69.20
2022-12-11T11:27:27.928Z,69.20
2022-12-11T11:29:57.591Z,69.20
2022-12-11T11:32:34.274Z,69.20
2022-12-11T11:35:26.035Z,69.20
2022-12-11T11:38:21.334Z,69.20
2022-12-11T11:41:24.077Z,69.20
2022-12-11T11:44:00.662Z,69.20
2022-12-11T11:46:36.494Z,69.20
2022-12-11T11:49:37.162Z,69.20
2022-12-11T11:52:25.151Z,69.20
2022-12-11T11:55:06.474Z,69.20
2022-12-11T11:58:00.367Z,69.20
2022-12-11T12:00:33.697Z,69.20
2022-12-11T12:03:21.726Z,69.20
2022-12-11T12:06:16.273Z,69.20
2022-12-11T12:08:48.706Z,69.20
2022-12-11T12:11:40.497Z,69.20
2022-12-11T12:14:51.052Z,69.20
2022-12-11T12:17:31.594Z,69.20
2022-12-11T12:20:19.884Z,69.20
2022-12-11T12:23:34.905Z,69.30
2022-12-11T12:26:27.915Z,69.20
2022-12-11T12:29:16.217Z,69.20
2022-12-11T12:32:41.324Z,69.30
2022-12-11T12:35:29.559Z,69.30
2022-12-11T12:38:33.995Z,69.20
2022-12-11T12:41:14.240Z,69.30
2022-12-11T12:44:19.195Z,69.30
2022-12-11T12:47:08.848Z,69.30
2022-12-11T12:49:44.843Z,69.20
2022-12-11T12:52:39.430Z,69.30
2022-12-11T12:55:28.843Z,69.30
2022-12-11T12:58:05.198Z,69.30
2022-12-11T13:00:41.218Z,69.30
2022-12-11T13:03:15.515Z,69.30
2022-12-11T13:05:45.819Z,69.30
2022-12-11T13:08:13.568Z,69.20
2022-12-11T13:10:43.562Z,69.20
2022-12-11T13:13:36.151Z,69.20
2022-12-11T13:16:27.173Z,69.20
2022-12-11T13:18:54.340Z,69.10
2022-12-11T13:21:32.732Z,69.10
2022-12-11T13:24:14.527Z,69.20
2022-12-11T13:26:42.481Z,69.20
2022-12-11T13:29:30.701Z,69.10
2022-12-11T13:32:00.376Z,69.20
2022-12-11T13:34:32.191Z,69.10
2022-12-11T13:36:59.961Z,69.10
2022-12-11T13:39:30.287Z,69.10
2022-12-11T13:42:20.146Z,69.10
2022-12-11T13:44:48.594Z,69.10
2022-12-11T13:47:18.805Z,69.10
2022-12-11T13:49:49.889Z,69.10
2022-12-11T13:52:28.654Z,69.10
2022-12-11T13:54:59.109Z,69.10
2022-12-11T13:57:28.431Z,69.10
2022-12-11T13:59:57.008Z,69.10
2022-12-11T14:02:38.904Z,69.10
2022-12-11T14:05:11.672Z,69.10
2022-12-11T14:07:46.619Z,69.30
2022-12-11T14:10:22.942Z,69.40
2022-12-11T14:13:14.548Z,69.50
2022-12-11T14:15:44.956Z,69.50
2022-12-11T14:18:24.816Z,69.50
2022-12-11T14:21:18.782Z,69.40
2022-12-11T14:23:58.794Z,69.40
2022-12-11T14:26:26.817Z,69.40
2022-12-11T14:28:53.615Z,69.40
2022-12-11T14:31:32.104Z,69.30
2022-12-11T14:34:04.756Z,69.30
2022-12-11T14:36:33.076Z,69.30
2022-12-11T14:39:04.971Z,69.10
2022-12-11T14:41:45.821Z,69.00
2022-12-11T14:44:16.833Z,68.90
2022-12-11T14:46:51.510Z,68.90
2022-12-11T14:49:24.583Z,68.90
2022-12-11T14:51:52.834Z,68.70
2022-12-11T14:54:40.978Z,68.70
2022-12-11T14:57:14.902Z,68.80
2022-12-11T14:59:46.878Z,68.80
2022-12-11T15:02:29.634Z,68.70
2022-12-11T15:05:26.018Z,68.70
2022-12-11T15:07:59.689Z,68.80
2022-12-11T15:10:35.615Z,68.80
2022-12-11T15:13:04.531Z,68.80
2022-12-11T15:15:39.011Z,68.80
2022-12-11T15:18:16.408Z,68.80
2022-12-11T15:20:43.125Z,68.90
2022-12-11T15:23:11.809Z,68.90
2022-12-11T15:25:51.723Z,68.90
2022-12-11T15:28:35.246Z,69.00
2022-12-11T15:31:05.422Z,68.90
2022-12-11T15:33:34.581Z,68.90
2022-12-11T15:36:21.504Z,68.80
2022-12-11T15:38:48.149Z,68.80
2022-12-11T15:41:21.012Z,68.80
2022-12-11T15:43:48.137Z,68.80
2022-12-11T15:46:15.013Z,68.80
2022-12-11T15:48:41.835Z,68.80
2022-12-11T15:51:09.954Z,68.80
2022-12-11T15:53:36.867Z,68.90
2022-12-11T15:56:03.629Z,68.80
2022-12-11T15:58:30.722Z,68.80
2022-12-11T16:00:57.927Z,68.80
2022-12-11T16:03:25.096Z,68.80
2022-12-11T16:05:55.202Z,68.80
2022-12-11T16:08:24.034Z,68.80
2022-12-11T16:10:54.745Z,68.80
2022-12-11T16:13:22.381Z,68.80
2022-12-11T16:15:51.413Z,68.80
2022-12-11T16:18:22.956Z,68.80
2022-12-11T16:20:51.463Z,68.80
2022-12-11T16:23:20.453Z,68.80
2022-12-11T16:25:47.965Z,68.80
2022-12-11T16:28:16.602Z,68.80
2022-12-11T16:30:43.945Z,68.80
2022-12-11T16:33:13.248Z,68.80
2022-12-11T16:35:49.852Z,68.80
2022-12-11T16:38:22.855Z,68.70
2022-12-11T16:40:58.811Z,68.80
2022-12-11T16:43:29.930Z,68.80
2022-12-11T16:46:03.411Z,68.80
2022-12-11T16:48:31.384Z,68.80
2022-12-11T16:50:58.145Z,68.80
2022-12-11T16:53:25.185Z,68.80
2022-12-11T16:55:51.821Z,68.80
2022-12-11T16:58:21.521Z,68.80
2022-12-11T17:00:49.404Z,68.80
2022-12-11T17:03:16.620Z,68.80
2022-12-11T17:05:43.840Z,68.80
2022-12-11T17:08:10.892Z,68.80
2022-12-11T17:10:42.008Z,68.80
2022-12-11T17:13:08.696Z,68.80
2022-12-11T17:15:39.309Z,68.80
2022-12-11T17:18:06.011Z,68.80
2022-12-11T17:20:32.707Z,68.80
2022-12-11T17:23:00.293Z,68.80
2022-12-11T17:25:26.919Z,68.80
2022-12-11T17:27:53.513Z,68.80
2022-12-11T17:30:20.104Z,68.80
2022-12-11T17:32:49.773Z,68.80
2022-12-11T17:35:17.111Z,68.80
2022-12-11T17:37:43.689Z,68.80
2022-12-11T17:40:11.000Z,68.80
2022-12-11T17:42:37.603Z,68.90
2022-12-11T17:45:04.843Z,68.80
2022-12-11T17:47:32.034Z,68.80
2022-12-11T17:49:58.624Z,68.80
2022-12-11T17:52:28.404Z,68.90
2022-12-11T17:54:59.064Z,68.80
2022-12-11T17:57:25.665Z,68.80
2022-12-11T17:59:54.793Z,68.90
2022-12-11T18:02:21.657Z,68.90
2022-12-11T18:04:48.967Z,68.90
2022-12-11T18:07:16.018Z,68.90
2022-12-11T18:09:42.680Z,68.90
2022-12-11T18:12:10.227Z,68.90
2022-12-11T18:14:37.782Z,68.90
2022-12-11T18:17:04.579Z,68.90
2022-12-11T18:19:31.863Z,68.90
2022-12-11T18:21:58.517Z,68.80
2022-12-11T18:24:31.599Z,68.80
2022-12-11T18:26:59.306Z,68.80
2022-12-11T18:29:26.365Z,68.80
2022-12-11T18:31:53.066Z,68.80
2022-12-11T18:34:20.072Z,68.80
2022-12-11T18:36:46.995Z,68.80
2022-12-11T18:39:13.630Z,68.90
2022-12-11T18:41:40.226Z,68.80
2022-12-11T18:44:09.935Z,68.90
2022-12-11T18:46:37.249Z,68.80
2022-12-11T18:49:03.960Z,68.80
2022-12-11T18:51:30.618Z,68.90
2022-12-11T18:53:57.443Z,68.80
2022-12-11T18:56:24.173Z,68.80
2022-12-11T18:58:51.318Z,68.80
2022-12-11T19:01:24.451Z,68.90
2022-12-11T19:04:02.045Z,68.90
2022-12-11T19:06:33.055Z,68.80
2022-12-11T19:09:00.183Z,68.80
2022-12-11T19:11:28.778Z,68.90
2022-12-11T19:13:59.349Z,68.90
2022-12-11T19:16:33.682Z,68.80
2022-12-11T19:19:03.095Z,68.80
2022-12-11T19:21:30.321Z,68.80
2022-12-11T19:23:57.168Z,68.80
2022-12-11T19:26:24.223Z,68.90
2022-12-11T19:28:52.771Z,68.90
2022-12-11T19:31:22.402Z,68.90
2022-12-11T19:33:49.475Z,68.90
2022-12-11T19:36:18.585Z,68.90
2022-12-11T19:38:45.633Z,68.90
2022-12-11T19:41:21.602Z,68.90
2022-12-11T19:43:49.129Z,68.90
2022-12-11T19:46:17.091Z,68.90
2022-12-11T19:48:43.884Z,68.80
2022-12-11T19:51:19.383Z,68.90
2022-12-11T19:53:47.791Z,68.90
2022-12-11T19:56:16.429Z,68.80
2022-12-11T19:58:43.303Z,68.90
2022-12-11T20:01:17.374Z,68.90
2022-12-11T20:03:44.415Z,68.90
2022-12-11T20:06:11.557Z,68.90
2022-12-11T20:08:46.255Z,68.90
2022-12-11T20:11:17.932Z,68.90
2022-12-11T20:13:49.609Z,68.90
2022-12-11T20:16:17.870Z,68.90
2022-12-11T20:18:46.191Z,68.90
2022-12-11T20:21:15.584Z,68.90
2022-12-11T20:23:43.531Z,68.90
2022-12-11T20:26:15.520Z,68.90
2022-12-11T20:28:42.355Z,68.90
2022-12-11T20:31:18.092Z,68.90
2022-12-11T20:33:46.767Z,68.90
2022-12-11T20:36:16.129Z,68.90
2022-12-11T20:38:43.764Z,68.90
2022-12-11T20:41:13.424Z,68.90
2022-12-11T20:43:40.853Z,68.90
2022-12-11T20:46:13.673Z,68.90
2022-12-11T20:48:42.373Z,68.90
2022-12-11T20:51:10.977Z,68.90
2022-12-11T20:53:38.429Z,68.90
2022-12-11T20:56:14.315Z,68.90
2022-12-11T20:58:41.136Z,68.90
2022-12-11T21:01:13.237Z,68.90
2022-12-11T21:03:42.151Z,68.90
2022-12-11T21:06:17.223Z,68.90
2022-12-11T21:08:43.805Z,68.90
2022-12-11T21:11:10.537Z,68.90
2022-12-11T21:13:37.327Z,68.90
2022-12-11T21:16:06.332Z,68.90
2022-12-11T21:18:33.365Z,68.90
2022-12-11T21:21:00.367Z,68.90
2022-12-11T21:23:26.984Z,68.90
2022-12-11T21:25:54.281Z,68.90
2022-12-11T21:28:21.237Z,68.90
2022-12-11T21:30:47.918Z,68.90
2022-12-11T21:35:55.661Z,68.90
2022-12-11T21:38:22.347Z,68.90
2022-12-11T21:40:49.141Z,68.90
2022-12-11T21:43:15.754Z,68.90
2022-12-11T21:48:29.216Z,68.90
2022-12-11T21:51:03.622Z,68.90
2022-12-11T21:53:30.287Z,68.90
2022-12-11T21:55:56.963Z,68.90
2022-12-11T21:58:23.599Z,68.90
2022-12-11T22:00:50.340Z,68.90
2022-12-11T22:03:17.111Z,68.90
2022-12-11T22:05:43.855Z,68.90
2022-12-11T22:08:10.965Z,68.90
2022-12-11T22:10:37.686Z,68.90
2022-12-11T22:13:04.335Z,68.90
2022-12-11T22:15:30.936Z,68.90
2022-12-11T22:17:57.575Z,68.90
2022-12-11T22:20:24.146Z,68.90
2022-12-11T22:22:50.817Z,68.90
2022-12-11T22:25:17.565Z,68.80
2022-12-11T22:27:44.204Z,68.90
2022-12-11T22:30:11.976Z,68.80
2022-12-11T22:32:38.606Z,68.90
2022-12-11T22:35:05.857Z,68.80
2022-12-11T22:37:32.666Z,68.90
2022-12-11T22:39:59.254Z,68.90
2022-12-11T22:42:25.916Z,68.90
2022-12-11T22:44:52.613Z,68.80
2022-12-11T22:47:19.280Z,68.80
2022-12-11T22:49:45.931Z,68.90
2022-12-11T22:52:12.547Z,68.90
2022-12-11T22:54:40.407Z,68.90
2022-12-11T22:57:07.831Z,68.90
2022-12-11T22:59:35.068Z,68.80
2022-12-11T23:02:02.128Z,68.90
2022-12-11T23:04:28.792Z,68.90
2022-12-11T23:06:55.653Z,68.80
2022-12-11T23:09:22.655Z,68.80
2022-12-11T23:11:49.786Z,68.80
2022-12-11T23:14:18.368Z,68.80
2022-12-11T23:16:45.218Z,68.80
2022-12-11T23:19:12.690Z,68.80
2022-12-11T23:21:39.795Z,68.70
2022-12-11T23:24:07.540Z,68.70
2022-12-11T23:26:34.286Z,68.70
2022-12-11T23:29:01.886Z,68.70
2022-12-11T23:31:29.939Z,68.70
2022-12-11T23:33:57.423Z,68.70
2022-12-11T23:36:25.834Z,68.70
2022-12-11T23:38:55.044Z,68.70
2022-12-11T23:41:22.815Z,68.60
2022-12-11T23:43:49.495Z,68.60
2022-12-11T23:46:20.637Z,68.60
2022-12-11T23:48:47.839Z,68.60
2022-12-11T23:51:17.502Z,68.60
2022-12-11T23:53:44.514Z,68.60
2022-12-11T23:56:19.089Z,68.60
2022-12-11T23:58:46.165Z,68.60
